createdAt,value
2018-05-29T00:02:03.188Z,86.10
2018-05-29T00:04:31.640Z,86.60
2018-05-29T00:07:00.598Z,87.30
2018-05-29T00:09:29.072Z,86.50
2018-05-29T00:11:57.517Z,86.70
2018-05-29T00:14:25.966Z,86.50
2018-05-29T00:16:54.420Z,86.70
2018-05-29T00:19:22.862Z,87.20
2018-05-29T00:21:51.307Z,87.50
2018-05-29T00:24:19.755Z,87.50
2018-05-29T00:26:48.211Z,87.10
2018-05-29T00:29:16.663Z,87.20
2018-05-29T00:31:45.683Z,87.10
2018-05-29T00:34:14.129Z,88.20
2018-05-29T00:36:42.587Z,87.40
2018-05-29T00:39:11.044Z,88.80
2018-05-29T00:41:39.532Z,87.90
2018-05-29T00:44:07.985Z,88.30
2018-05-29T00:46:36.428Z,88.60
2018-05-29T00:49:05.799Z,88.70
2018-05-29T00:51:34.492Z,89.00
2018-05-29T00:54:02.947Z,89.60
2018-05-29T00:56:31.599Z,90.20
2018-05-29T00:59:00.380Z,90.20
2018-05-29T01:01:28.823Z,90.20
2018-05-29T01:03:57.390Z,90.40
2018-05-29T01:06:25.837Z,90.50
2018-05-29T01:08:54.494Z,90.50
2018-05-29T01:11:23.494Z,90.70
2018-05-29T01:13:51.930Z,90.70
2018-05-29T01:16:20.390Z,90.90
2018-05-29T01:18:48.841Z,91.00
2018-05-29T01:21:17.292Z,90.70
2018-05-29T01:23:45.748Z,90.70
2018-05-29T01:26:14.195Z,90.90
2018-05-29T01:28:42.643Z,90.90
2018-05-29T01:31:11.544Z,91.00
2018-05-29T01:33:39.995Z,91.20
2018-05-29T01:36:09.312Z,91.40
2018-05-29T01:38:37.818Z,91.50
2018-05-29T01:41:07.980Z,91.80
2018-05-29T01:43:36.424Z,91.70
2018-05-29T01:46:04.879Z,91.70
2018-05-29T01:48:33.361Z,91.90
2018-05-29T01:51:01.810Z,91.80
2018-05-29T01:53:31.026Z,92.00
2018-05-29T01:55:59.892Z,92.00
2018-05-29T01:58:29.112Z,92.40
2018-05-29T02:00:57.571Z,92.40
2018-05-29T02:03:26.018Z,92.50
2018-05-29T02:05:54.469Z,92.30
2018-05-29T02:08:22.915Z,92.30
2018-05-29T02:10:51.355Z,92.30
2018-05-29T02:13:19.800Z,92.30
2018-05-29T02:15:48.248Z,92.40
2018-05-29T02:18:16.707Z,92.50
2018-05-29T02:20:45.395Z,92.50
2018-05-29T02:23:13.840Z,92.60
2018-05-29T02:25:42.294Z,92.60
2018-05-29T02:28:10.743Z,92.80
2018-05-29T02:30:39.196Z,92.70
2018-05-29T02:33:07.650Z,93.00
2018-05-29T02:35:36.103Z,93.30
2018-05-29T02:38:04.552Z,93.20
2018-05-29T02:40:33.004Z,93.20
2018-05-29T02:43:01.467Z,93.30
2018-05-29T02:45:30.675Z,93.70
2018-05-29T02:47:59.123Z,93.70
2018-05-29T02:50:27.571Z,93.50
2018-05-29T02:52:56.023Z,94.10
2018-05-29T02:55:24.479Z,93.70
2018-05-29T02:57:53.387Z,94.00
2018-05-29T03:00:22.604Z,94.20
2018-05-29T03:02:51.968Z,94.10
2018-05-29T03:05:20.419Z,94.20
2018-05-29T03:07:48.872Z,94.30
2018-05-29T03:10:18.139Z,94.20
2018-05-29T03:12:46.275Z,94.40
2018-05-29T03:15:14.729Z,94.50
2018-05-29T03:17:43.971Z,94.50
2018-05-29T03:20:12.887Z,94.60
2018-05-29T03:22:41.324Z,94.60
2018-05-29T03:25:09.779Z,94.90
2018-05-29T03:27:38.988Z,94.90
2018-05-29T03:30:07.544Z,94.90
2018-05-29T03:32:36.915Z,94.60
2018-05-29T03:35:05.383Z,94.60
2018-05-29T03:37:33.827Z,94.50
2018-05-29T03:40:02.291Z,94.60
2018-05-29T03:42:31.514Z,94.70
2018-05-29T03:44:59.985Z,94.70
2018-05-29T03:47:28.427Z,94.70
2018-05-29T03:49:56.900Z,94.80
2018-05-29T03:52:25.348Z,95.00
2018-05-29T03:54:53.822Z,94.70
2018-05-29T03:57:22.280Z,94.60
2018-05-29T03:59:51.387Z,94.40
2018-05-29T04:02:19.832Z,94.30
2018-05-29T04:04:48.304Z,94.30
2018-05-29T04:07:16.432Z,94.40
2018-05-29T04:09:44.900Z,94.00
2018-05-29T04:12:13.352Z,94.20
2018-05-29T04:14:41.819Z,94.10
2018-05-29T04:17:10.847Z,94.00
2018-05-29T04:19:39.752Z,93.90
2018-05-29T04:22:08.200Z,93.80
2018-05-29T04:24:36.663Z,93.70
2018-05-29T04:27:05.117Z,93.70
2018-05-29T04:29:33.583Z,93.60
2018-05-29T04:32:02.159Z,93.60
2018-05-29T04:34:30.642Z,93.60
2018-05-29T04:36:58.788Z,93.70
2018-05-29T04:39:27.244Z,93.40
2018-05-29T04:41:57.025Z,93.70
2018-05-29T04:44:25.478Z,93.70
2018-05-29T04:46:53.905Z,93.60
2018-05-29T04:49:22.899Z,93.50
2018-05-29T04:51:51.359Z,93.30
2018-05-29T04:54:19.836Z,93.50
2018-05-29T04:56:49.061Z,93.10
2018-05-29T04:59:19.160Z,93.10
2018-05-29T05:01:47.687Z,92.80
2018-05-29T05:04:16.139Z,92.20
2018-05-29T05:06:44.608Z,91.70
2018-05-29T05:09:13.051Z,91.20
2018-05-29T05:11:41.512Z,91.20
2018-05-29T05:14:09.975Z,91.30
2018-05-29T05:16:39.063Z,90.40
2018-05-29T05:19:07.514Z,90.40
2018-05-29T05:21:35.975Z,90.20
2018-05-29T05:24:04.436Z,89.80
2018-05-29T05:26:33.527Z,90.30
2018-05-29T05:29:01.976Z,89.00
2018-05-29T05:31:30.440Z,87.90
2018-05-29T05:33:59.489Z,87.20
2018-05-29T05:36:28.225Z,87.20
2018-05-29T05:38:56.775Z,86.20
2018-05-29T05:41:26.136Z,87.60
2018-05-29T05:43:54.586Z,86.60
2018-05-29T05:46:23.860Z,85.80
2018-05-29T05:48:52.309Z,84.30
2018-05-29T05:51:20.755Z,83.70
2018-05-29T05:53:49.223Z,84.60
2018-05-29T05:56:17.672Z,82.40
2018-05-29T05:58:46.133Z,81.10
2018-05-29T06:01:14.575Z,80.70
2018-05-29T06:03:43.035Z,80.90
2018-05-29T06:06:11.480Z,79.20
2018-05-29T06:08:39.937Z,76.20
2018-05-29T06:11:08.391Z,74.90
2018-05-29T06:13:36.888Z,72.50
2018-05-29T06:16:05.343Z,64.00
2018-05-29T06:18:33.791Z,56.40
2018-05-29T06:21:02.252Z,52.40
2018-05-29T06:23:30.722Z,48.40
2018-05-29T06:25:59.180Z,45.50
2018-05-29T06:28:28.580Z,44.50
2018-05-29T06:30:57.143Z,42.60
2018-05-29T06:33:25.608Z,43.30
2018-05-29T06:35:54.679Z,41.30
2018-05-29T06:38:23.462Z,39.90
2018-05-29T06:40:52.398Z,40.00
2018-05-29T06:43:21.423Z,38.30
2018-05-29T06:45:50.235Z,38.20
2018-05-29T06:48:19.432Z,38.80
2018-05-29T06:50:49.424Z,38.50
2018-05-29T06:53:18.450Z,38.70
2018-05-29T06:55:47.478Z,37.80
2018-05-29T06:58:17.430Z,37.20
2018-05-29T07:00:46.472Z,37.60
2018-05-29T07:03:15.491Z,37.00
2018-05-29T07:05:44.523Z,38.60
2018-05-29T07:08:13.548Z,38.20
2018-05-29T07:10:45.570Z,38.80
2018-05-29T07:13:18.135Z,40.90
2018-05-29T07:15:47.588Z,41.80
2018-05-29T07:18:17.831Z,43.20
2018-05-29T07:20:48.491Z,43.60
2018-05-29T07:23:18.147Z,43.90
2018-05-29T07:25:46.902Z,45.20
2018-05-29T07:28:15.903Z,46.20
2018-05-29T07:30:45.867Z,47.00
2018-05-29T07:33:14.914Z,47.40
2018-05-29T07:35:44.695Z,49.40
2018-05-29T07:38:13.723Z,49.40
2018-05-29T07:40:43.114Z,49.40
2018-05-29T07:43:12.601Z,49.20
2018-05-29T07:45:41.611Z,49.30
2018-05-29T07:48:10.692Z,50.30
2018-05-29T07:50:40.135Z,49.10
2018-05-29T07:53:09.155Z,49.60
2018-05-29T07:55:39.088Z,45.60
2018-05-29T07:58:09.555Z,42.40
2018-05-29T08:00:38.574Z,41.70
2018-05-29T08:03:08.011Z,40.10
2018-05-29T08:05:37.018Z,39.10
2018-05-29T08:08:06.783Z,37.00
2018-05-29T08:10:35.867Z,36.90
2018-05-29T08:13:04.290Z,37.80
2018-05-29T08:15:33.322Z,36.40
2018-05-29T08:18:03.112Z,36.40
2018-05-29T08:20:32.121Z,37.50
2018-05-29T08:23:01.168Z,37.50
2018-05-29T08:25:30.204Z,37.90
2018-05-29T08:28:01.074Z,38.40
2018-05-29T08:30:31.006Z,38.40
2018-05-29T08:33:01.749Z,38.70
2018-05-29T08:35:32.395Z,38.60
2018-05-29T08:38:02.124Z,38.80
2018-05-29T08:40:32.471Z,38.60
2018-05-29T08:43:02.387Z,38.30
2018-05-29T08:45:31.461Z,37.80
2018-05-29T08:48:00.860Z,39.50
2018-05-29T08:50:31.114Z,39.60
2018-05-29T08:53:00.655Z,38.80
2018-05-29T08:55:29.907Z,39.70
2018-05-29T08:58:00.700Z,41.30
2018-05-29T09:00:30.582Z,43.30
2018-05-29T09:03:00.547Z,43.20
2018-05-29T09:05:29.234Z,44.80
2018-05-29T09:07:58.242Z,42.70
2018-05-29T09:10:27.249Z,44.40
2018-05-29T09:12:56.246Z,44.90
2018-05-29T09:15:25.242Z,44.10
2018-05-29T09:17:54.243Z,45.50
2018-05-29T09:20:24.024Z,45.00
2018-05-29T09:22:53.024Z,44.90
2018-05-29T09:25:22.023Z,44.50
2018-05-29T09:27:51.024Z,44.20
2018-05-29T09:30:20.023Z,44.20
2018-05-29T09:32:49.043Z,44.30
2018-05-29T09:35:18.052Z,44.10
2018-05-29T09:37:47.063Z,44.60
2018-05-29T09:40:16.843Z,43.60
2018-05-29T09:42:46.019Z,43.50
2018-05-29T09:45:15.035Z,42.20
2018-05-29T09:47:44.608Z,44.00
2018-05-29T09:50:13.044Z,44.70
2018-05-29T09:52:41.477Z,45.00
2018-05-29T09:55:09.935Z,44.40
2018-05-29T09:57:38.386Z,43.60
2018-05-29T10:00:06.831Z,43.80
2018-05-29T10:02:35.307Z,44.30
2018-05-29T10:05:03.411Z,44.60
2018-05-29T10:07:31.856Z,45.40
2018-05-29T10:10:00.626Z,45.70
2018-05-29T10:12:29.879Z,45.40
2018-05-29T10:14:58.364Z,45.40
2018-05-29T10:17:26.844Z,46.30
2018-05-29T10:19:55.298Z,45.30
2018-05-29T10:22:24.971Z,46.60
2018-05-29T10:24:53.419Z,46.60
2018-05-29T10:27:21.903Z,47.10
2018-05-29T10:29:50.347Z,47.80
2018-05-29T10:32:18.792Z,48.50
2018-05-29T10:34:48.271Z,46.10
2018-05-29T10:37:16.712Z,47.80
2018-05-29T10:39:45.155Z,46.70
2018-05-29T10:42:13.616Z,47.30
2018-05-29T10:44:42.063Z,47.30
2018-05-29T10:47:10.538Z,49.20
2018-05-29T10:49:38.983Z,48.90
2018-05-29T10:52:07.492Z,49.40
2018-05-29T10:54:35.939Z,47.50
2018-05-29T10:57:04.379Z,47.10
2018-05-29T10:59:32.829Z,47.00
2018-05-29T11:02:02.044Z,47.20
2018-05-29T11:04:30.493Z,47.30
2018-05-29T11:06:59.010Z,47.00
2018-05-29T11:09:27.594Z,46.60
2018-05-29T11:11:56.036Z,45.80
2018-05-29T11:14:24.489Z,47.40
2018-05-29T11:16:54.144Z,46.10
2018-05-29T11:19:22.592Z,47.00
2018-05-29T11:21:51.038Z,48.10
2018-05-29T11:24:19.487Z,46.60
2018-05-29T11:26:47.930Z,46.70
2018-05-29T11:29:17.603Z,47.40
2018-05-29T11:31:46.463Z,47.30
2018-05-29T11:34:14.907Z,46.30
2018-05-29T11:36:43.034Z,46.90
2018-05-29T11:39:11.540Z,47.00
2018-05-29T11:41:40.911Z,46.70
2018-05-29T11:44:09.355Z,46.80
2018-05-29T11:46:37.800Z,45.80
2018-05-29T11:49:05.911Z,47.20
2018-05-29T11:51:34.352Z,48.10
2018-05-29T11:54:03.651Z,45.90
2018-05-29T11:56:32.088Z,46.40
2018-05-29T11:59:00.559Z,45.40
2018-05-29T12:01:29.015Z,46.00
2018-05-29T12:04:00.821Z,47.70
2018-05-29T12:06:29.278Z,46.10
2018-05-29T12:08:57.724Z,46.90
2018-05-29T12:11:25.505Z,46.70
2018-05-29T12:13:53.944Z,47.70
2018-05-29T12:16:23.160Z,48.10
2018-05-29T12:18:51.599Z,48.20
2018-05-29T12:21:20.052Z,48.40
2018-05-29T12:23:48.496Z,50.30
2018-05-29T12:26:16.983Z,49.70
2018-05-29T12:28:45.454Z,50.60
2018-05-29T12:31:13.947Z,50.20
2018-05-29T12:33:42.456Z,49.40
2018-05-29T12:36:10.907Z,50.00
2018-05-29T12:38:39.392Z,48.80
2018-05-29T12:41:07.883Z,47.90
2018-05-29T12:43:36.344Z,48.40
2018-05-29T12:46:04.824Z,48.90
2018-05-29T12:48:33.119Z,48.90
2018-05-29T12:51:01.610Z,48.70
2018-05-29T12:53:30.387Z,48.30
2018-05-29T12:55:58.835Z,50.40
2018-05-29T12:58:27.691Z,49.50
2018-05-29T13:00:57.837Z,50.50
2018-05-29T13:03:26.005Z,50.50
2018-05-29T13:05:55.396Z,51.00
2018-05-29T13:08:23.853Z,50.30
2018-05-29T13:10:52.332Z,50.30
2018-05-29T13:13:21.199Z,50.40
2018-05-29T13:15:50.619Z,50.40
2018-05-29T13:18:21.067Z,50.40
2018-05-29T13:20:51.053Z,52.40
2018-05-29T13:23:20.943Z,53.50
2018-05-29T13:25:50.957Z,52.60
2018-05-29T13:28:20.791Z,50.60
2018-05-29T13:30:49.298Z,50.90
2018-05-29T13:33:17.749Z,52.10
2018-05-29T13:35:46.191Z,51.40
2018-05-29T13:38:14.640Z,52.00
2018-05-29T13:40:43.083Z,51.40
2018-05-29T13:43:11.523Z,51.80
2018-05-29T13:45:39.971Z,51.90
2018-05-29T13:48:08.424Z,52.00
2018-05-29T13:50:36.870Z,51.20
2018-05-29T13:53:05.008Z,52.00
2018-05-29T13:55:33.458Z,52.70
2018-05-29T13:58:01.563Z,54.00
2018-05-29T14:00:30.016Z,53.60
2018-05-29T14:02:58.467Z,53.30
2018-05-29T14:05:26.911Z,54.80
2018-05-29T14:07:55.432Z,54.30
2018-05-29T14:10:23.876Z,55.40
2018-05-29T14:12:53.086Z,54.50
2018-05-29T14:15:21.527Z,53.80
2018-05-29T14:17:49.973Z,54.80
2018-05-29T14:20:18.431Z,53.60
2018-05-29T14:22:46.877Z,56.00
2018-05-29T14:25:15.311Z,55.90
2018-05-29T14:27:43.764Z,55.80
2018-05-29T14:30:12.212Z,55.70
2018-05-29T14:32:40.660Z,54.20
2018-05-29T14:35:09.107Z,54.70
2018-05-29T14:37:37.559Z,54.30
2018-05-29T14:40:06.022Z,53.70
2018-05-29T14:42:35.232Z,55.30
2018-05-29T14:45:03.969Z,55.20
2018-05-29T14:47:32.413Z,53.90
2018-05-29T14:50:00.867Z,54.80
2018-05-29T14:52:29.319Z,54.20
2018-05-29T14:54:57.754Z,55.50
2018-05-29T14:57:26.200Z,55.00
2018-05-29T14:59:54.638Z,56.00
2018-05-29T15:02:23.078Z,55.20
2018-05-29T15:04:51.514Z,54.70
2018-05-29T15:07:19.952Z,56.10
2018-05-29T15:09:48.400Z,56.10
2018-05-29T15:12:16.843Z,56.10
2018-05-29T15:14:45.290Z,56.50
2018-05-29T15:17:13.758Z,57.30
2018-05-29T15:19:43.928Z,57.40
2018-05-29T15:22:12.390Z,57.30
2018-05-29T15:24:40.843Z,57.70
2018-05-29T15:27:09.487Z,59.00
2018-05-29T15:29:38.210Z,60.40
2018-05-29T15:32:06.658Z,60.90
2018-05-29T15:34:34.769Z,61.10
2018-05-29T15:37:03.220Z,61.80
2018-05-29T15:39:31.665Z,63.40
2018-05-29T15:42:00.428Z,63.40
2018-05-29T15:44:29.543Z,64.00
2018-05-29T15:46:57.995Z,64.60
2018-05-29T15:49:26.435Z,64.70
2018-05-29T15:51:54.583Z,66.00
2018-05-29T15:54:23.026Z,64.60
2018-05-29T15:56:51.138Z,63.00
2018-05-29T15:59:19.242Z,63.50
2018-05-29T16:01:47.010Z,63.40
2018-05-29T16:04:15.455Z,62.00
2018-05-29T16:06:44.137Z,62.80
2018-05-29T16:09:12.890Z,61.70
2018-05-29T16:11:41.358Z,62.00
2018-05-29T16:14:10.337Z,61.60
2018-05-29T16:16:38.796Z,62.90
2018-05-29T16:19:07.243Z,63.30
2018-05-29T16:21:35.691Z,63.10
2018-05-29T16:24:03.804Z,63.20
2018-05-29T16:26:33.097Z,64.20
2018-05-29T16:29:01.674Z,64.10
2018-05-29T16:31:30.114Z,65.10
2018-05-29T16:33:58.564Z,63.00
2018-05-29T16:36:27.694Z,62.40
2018-05-29T16:38:56.690Z,63.50
2018-05-29T16:41:25.970Z,63.70
2018-05-29T16:43:54.242Z,63.30
2018-05-29T16:46:23.466Z,64.50
2018-05-29T16:48:51.902Z,64.40
2018-05-29T16:51:20.694Z,65.30
2018-05-29T16:53:49.915Z,65.70
2018-05-29T16:56:18.730Z,65.30
2018-05-29T16:58:47.170Z,65.00
2018-05-29T17:01:16.367Z,65.10
2018-05-29T17:03:45.263Z,65.00
2018-05-29T17:06:13.708Z,64.60
2018-05-29T17:08:42.497Z,65.20
2018-05-29T17:11:11.056Z,65.10
2018-05-29T17:13:39.491Z,66.00
2018-05-29T17:16:08.382Z,66.00
2018-05-29T17:18:36.852Z,67.30
2018-05-29T17:21:05.325Z,68.30
2018-05-29T17:23:35.483Z,69.40
2018-05-29T17:26:05.131Z,71.00
2018-05-29T17:28:33.591Z,72.20
2018-05-29T17:31:02.163Z,72.50
2018-05-29T17:33:30.638Z,73.40
2018-05-29T17:35:59.088Z,73.30
2018-05-29T17:38:27.563Z,73.30
2018-05-29T17:40:56.011Z,73.80
2018-05-29T17:43:24.454Z,74.10
2018-05-29T17:45:52.902Z,73.80
2018-05-29T17:48:21.468Z,73.10
2018-05-29T17:50:49.927Z,72.30
2018-05-29T17:53:18.375Z,73.80
2018-05-29T17:55:46.815Z,74.70
2018-05-29T17:58:15.258Z,73.20
2018-05-29T18:00:43.605Z,72.70
2018-05-29T18:03:12.102Z,72.20
2018-05-29T18:05:40.751Z,75.40
2018-05-29T18:08:09.216Z,76.40
2018-05-29T18:10:38.620Z,77.00
2018-05-29T18:13:06.783Z,76.90
2018-05-29T18:15:35.236Z,78.90
2018-05-29T18:18:03.687Z,79.10
2018-05-29T18:20:32.193Z,81.00
2018-05-29T18:23:01.387Z,79.70
2018-05-29T18:25:29.847Z,81.90
2018-05-29T18:27:58.299Z,83.30
2018-05-29T18:30:26.739Z,85.10
2018-05-29T18:32:55.179Z,86.50
2018-05-29T18:35:24.179Z,87.60
2018-05-29T18:37:52.834Z,88.70
2018-05-29T18:40:21.440Z,89.60
2018-05-29T18:42:49.943Z,90.10
2018-05-29T18:45:18.514Z,90.40
2018-05-29T18:47:49.596Z,90.60
2018-05-29T18:50:19.919Z,91.10
2018-05-29T19:01:26.013Z,91.40
2018-05-29T19:03:54.659Z,90.90
2018-05-29T19:06:23.313Z,87.50
2018-05-29T19:08:51.808Z,83.90
2018-05-29T19:11:20.248Z,82.90
2018-05-29T19:13:48.704Z,82.00
2018-05-29T19:16:17.571Z,82.30
2018-05-29T19:18:46.026Z,81.60
2018-05-29T19:21:15.256Z,81.10
2018-05-29T19:23:44.093Z,81.20
2018-05-29T19:26:12.584Z,81.60
2018-05-29T19:28:41.056Z,81.30
2018-05-29T19:31:09.503Z,81.60
2018-05-29T19:33:37.955Z,81.60
2018-05-29T19:36:07.222Z,82.40
2018-05-29T19:38:35.671Z,82.00
2018-05-29T19:41:04.130Z,82.20
2018-05-29T19:43:32.598Z,81.70
2018-05-29T19:46:04.221Z,81.50
2018-05-29T19:48:32.671Z,81.70
2018-05-29T19:51:06.971Z,81.50
2018-05-29T19:53:34.775Z,81.50
2018-05-29T19:56:03.419Z,81.60
2018-05-29T19:58:32.210Z,81.30
2018-05-29T20:01:04.564Z,82.80
2018-05-29T20:03:33.882Z,82.70
2018-05-29T20:06:02.623Z,82.80
2018-05-29T20:08:32.676Z,82.00
2018-05-29T20:11:02.952Z,82.60
2018-05-29T20:13:32.057Z,83.20
2018-05-29T20:16:06.053Z,82.70
2018-05-29T20:18:36.502Z,83.00
2018-05-29T20:21:06.675Z,83.00
2018-05-29T20:23:36.731Z,82.90
2018-05-29T20:26:08.930Z,83.00
2018-05-29T20:28:37.584Z,83.60
2018-05-29T20:31:06.925Z,84.50
2018-05-29T20:33:35.400Z,83.80
2018-05-29T20:36:04.859Z,84.10
2018-05-29T20:38:34.056Z,84.50
2018-05-29T20:41:02.877Z,84.40
2018-05-29T20:43:31.688Z,84.70
2018-05-29T20:46:02.735Z,85.10
2018-05-29T20:48:32.129Z,85.40
2018-05-29T20:51:01.505Z,85.70
2018-05-29T20:53:29.749Z,85.60
2018-05-29T20:55:59.515Z,85.80
2018-05-29T20:58:28.810Z,85.50
2018-05-29T21:00:59.820Z,85.40
2018-05-29T21:03:28.515Z,85.40
2018-05-29T21:06:03.165Z,85.50
2018-05-29T21:08:31.927Z,85.90
2018-05-29T21:11:01.086Z,85.60
2018-05-29T21:13:31.150Z,85.20
2018-05-29T21:15:59.944Z,85.20
2018-05-29T21:18:28.629Z,85.80
2018-05-29T21:20:57.185Z,86.00
2018-05-29T21:23:26.953Z,87.10
2018-05-29T21:25:56.975Z,86.10
2018-05-29T21:28:25.869Z,86.70
2018-05-29T21:30:55.065Z,87.50
2018-05-29T21:33:24.313Z,87.40
2018-05-29T21:35:52.756Z,87.70
2018-05-29T21:38:21.436Z,87.40
2018-05-29T21:40:50.861Z,87.40
2018-05-29T21:43:20.500Z,87.30
2018-05-29T21:45:50.775Z,88.20
2018-05-29T21:48:19.372Z,88.10
2018-05-29T21:50:48.727Z,88.70
2018-05-29T21:53:17.209Z,88.60
2018-05-29T21:55:45.772Z,89.20
2018-05-29T21:58:15.300Z,89.60
2018-05-29T22:00:44.176Z,90.00
2018-05-29T22:03:12.854Z,90.10
2018-05-29T22:05:41.403Z,90.30
2018-05-29T22:08:10.818Z,90.40
2018-05-29T22:10:41.089Z,90.50
2018-05-29T22:13:09.670Z,90.30
2018-05-29T22:15:38.291Z,90.30
2018-05-29T22:18:07.833Z,90.00
2018-05-29T22:20:36.558Z,90.10
2018-05-29T22:23:06.820Z,90.20
2018-05-29T22:25:35.333Z,90.40
2018-05-29T22:28:03.826Z,90.30
2018-05-29T22:30:32.504Z,90.50
2018-05-29T22:33:04.327Z,90.60
2018-05-29T22:35:33.194Z,90.60
2018-05-29T22:38:01.843Z,90.50
2018-05-29T22:40:31.751Z,90.60
2018-05-29T22:43:01.864Z,90.50
2018-05-29T22:45:32.028Z,90.40
2018-05-29T22:48:01.600Z,90.50
2018-05-29T22:50:31.216Z,90.70
2018-05-29T22:53:00.199Z,90.70
2018-05-29T22:55:28.653Z,90.80
2018-05-29T22:57:57.137Z,90.50
2018-05-29T23:00:26.350Z,90.50
2018-05-29T23:02:56.319Z,90.50
2018-05-29T23:05:25.638Z,91.00
2018-05-29T23:07:54.083Z,91.30
2018-05-29T23:10:24.150Z,91.80
2018-05-29T23:12:52.852Z,91.80
2018-05-29T23:15:22.507Z,92.00
2018-05-29T23:17:50.692Z,92.10
2018-05-29T23:20:19.134Z,92.40
2018-05-29T23:22:48.662Z,92.60
2018-05-29T23:25:18.163Z,92.60
2018-05-29T23:27:46.706Z,92.80
2018-05-29T23:30:15.389Z,93.00
2018-05-29T23:32:43.676Z,93.20
2018-05-29T23:35:12.128Z,93.40
2018-05-29T23:37:40.843Z,93.60
2018-05-29T23:40:09.632Z,93.60
2018-05-29T23:42:38.071Z,93.80
2018-05-29T23:45:06.527Z,93.80
2018-05-29T23:47:34.979Z,93.90
2018-05-29T23:50:06.264Z,94.10
2018-05-29T23:52:34.731Z,94.30
2018-05-29T23:55:03.187Z,94.20
2018-05-29T23:57:31.654Z,94.50
